Huvudsida
METAR-TAF:

METAR-TAF

Flygplatser :

Udaipur Dabok

Udaipur, Indien

latitud: 24-37-04N, longitud: 73-53-46E, höjd: 513 m

Aktuellt väderrapport

Denna rapport gjordes för 28 minuter sedan, klockan 09:00 UTC
Vind 6 kt från nordost
Temperatur 42°C
Fuktighet 14%
Tryck 1005 hPa
Sikt: 6000 m
Spridda moln på en höjd av 3000 ft

METAR: VAUD 200900Z 04006KT 6000 SCT030 42/09 Q1005 NOSIG

Tid: 14:58 (09:28 UTC)

Väderprognos

Denna rapport gjordes för 1 timme och 28 minuter sedan, klockan 08:00 UTC
Prognos gäller från 20 kl. 09 UTC till 20 kl. 18 UTC
Vind 6 kt från nord
Sikt: 6000 m
Spridda moln på en höjd av 3000 ft
Spridda moln på en höjd av 10000 ft
Blir
från 20 kl. 14 UTC till 20 kl. 16 UTC
Vind 8 kt från nordväst
Sikt: 4000 m
Få moln på en höjd av 3000 ft
Spridda moln på en höjd av 10000 ft
torrdis,

TAF: VAUD 200800Z 2009/2018 35006KT 6000 SCT030 SCT100 BECMG 2014/2016 32008KT 4000 HZ FEW030 SCT100

Aktuella väderrapporter och prognoser från 4000 flygplatser (METAR- och TAF-rapporter).

De tillgängliga stationerna syns som gula och röda prickar på kartan.

För musen över prickarna för att se namnen på stationerna.

Klicka sedan för att få väderrapporter och prognoser.

För att ändra kartan: Klicka på de gröna knapparna med ett svart kors på för att zooma in; den gröna knappen med ett streck på för att zooma ut; eller på de gröna pilarna för angränsande kartor.


METAR-TAF: